Manhattan, Kansas
Current Conditions -  °F | °C
As of 9:52 PM on Saturday 25 Oct 2014 (Local Time) from KMHK Reporting Station
Clear Clear  
Wind Chill: 68°   Ceiling: Unl
Heat Index: 68°   Visibility: 10mi
Dew Point: 59°   Wind: 6mph
Humidity: 73%   Direction: 80°E
Pressure: 29.95"   Gusts: NA
Location:  39.18°N, 96.56°W
Report Text: KMHK 260252Z 08005KT 10SM CLR 20/15 A2995 RMK AO2 SLP139 T02000150 55004
Loading
Personal Weather Stations






























Interactive Weather Map
Tropical Storm Tracking
New forecast layout! Learn more

10-Day Weather Forecast

Advertisements
Track Severe Weather on mobile